Aviation WX

[Source: ADDS]
METAR
KFKL 230219Z AUTO 29007KT 10SM -RA FEW008 BKN055 OVC070 18/16 A2998 RMK AO2 TSE03 P0002 =
TAF
KFKL 230128Z 2301/2324 VRB04KT P6SM VCSH BKN035 TEMPO 2301/2302 1SM SHRA BR FM230200 VRB04KT P6SM BKN025 FM230500 31005KT P6SM BKN008 FM231500 34005KT P6SM SCT025 =

Clarion Airport T-Shirts

small